createdAt,value
2018-07-24T00:00:11.787Z,0
2018-07-24T00:01:11.726Z,0
2018-07-24T00:02:11.852Z,0
2018-07-24T00:03:11.851Z,0
2018-07-24T00:04:11.846Z,0
2018-07-24T00:05:11.723Z,0
2018-07-24T00:06:11.787Z,0
2018-07-24T00:07:11.755Z,0
2018-07-24T00:08:11.795Z,0
2018-07-24T00:09:11.794Z,0
2018-07-24T00:10:11.733Z,0
2018-07-24T00:11:11.731Z,0
2018-07-24T00:12:11.766Z,0
2018-07-24T00:13:11.734Z,0
2018-07-24T00:14:11.819Z,0
2018-07-24T00:15:11.737Z,0
2018-07-24T00:16:11.826Z,0
2018-07-24T00:17:11.750Z,0
2018-07-24T00:18:11.825Z,0
2018-07-24T00:19:11.788Z,0
2018-07-24T00:20:11.862Z,0
2018-07-24T00:21:11.873Z,0
2018-07-24T00:22:11.754Z,0
2018-07-24T00:23:11.792Z,0
2018-07-24T00:24:11.837Z,0
2018-07-24T00:25:11.791Z,0
2018-07-24T00:26:11.903Z,0
2018-07-24T00:27:11.836Z,0
2018-07-24T00:28:11.873Z,0
2018-07-24T00:29:11.830Z,0
2018-07-24T00:30:11.864Z,0
2018-07-24T00:31:11.760Z,0
2018-07-24T00:32:11.923Z,0
2018-07-24T00:33:11.860Z,0
2018-07-24T00:34:11.872Z,0
2018-07-24T00:35:11.861Z,0
2018-07-24T00:36:11.785Z,0
2018-07-24T00:37:11.844Z,0
2018-07-24T00:38:11.849Z,0
2018-07-24T00:39:11.887Z,0
2018-07-24T00:40:11.820Z,0
2018-07-24T00:41:11.848Z,0
2018-07-24T00:42:11.815Z,0
2018-07-24T00:43:11.885Z,0
2018-07-24T00:44:11.854Z,0
2018-07-24T00:45:11.848Z,0
2018-07-24T00:46:11.857Z,0
2018-07-24T00:47:11.792Z,0
2018-07-24T00:48:11.880Z,0
2018-07-24T00:49:11.881Z,0
2018-07-24T00:50:11.834Z,0
2018-07-24T00:51:11.791Z,0
2018-07-24T00:52:11.844Z,0
2018-07-24T00:53:11.756Z,0
2018-07-24T00:54:11.847Z,0
2018-07-24T00:55:11.816Z,0
2018-07-24T00:56:11.847Z,0
2018-07-24T00:57:11.797Z,0
2018-07-24T00:58:11.780Z,0
2018-07-24T00:59:11.834Z,0
2018-07-24T01:00:11.785Z,0
2018-07-24T01:01:11.851Z,0
2018-07-24T01:02:11.856Z,0
2018-07-24T01:03:11.799Z,0
2018-07-24T01:04:11.854Z,0
2018-07-24T01:05:11.920Z,0
2018-07-24T01:06:11.767Z,0
2018-07-24T01:07:11.771Z,0
2018-07-24T01:08:11.795Z,0
2018-07-24T01:09:11.731Z,0
2018-07-24T01:10:11.811Z,0
2018-07-24T01:11:11.787Z,0
2018-07-24T01:12:11.872Z,0
2018-07-24T01:13:11.836Z,0
2018-07-24T01:14:11.840Z,0
2018-07-24T01:15:11.899Z,0
2018-07-24T01:16:11.869Z,0
2018-07-24T01:17:11.812Z,0
2018-07-24T01:18:11.890Z,0
2018-07-24T01:19:11.815Z,0
2018-07-24T01:20:11.899Z,0
2018-07-24T01:21:11.899Z,0
2018-07-24T01:22:11.879Z,0
2018-07-24T01:23:11.874Z,0
2018-07-24T01:24:11.935Z,0
2018-07-24T01:25:11.884Z,0
2018-07-24T01:26:11.880Z,0
2018-07-24T01:27:11.819Z,0
2018-07-24T01:28:11.800Z,0
2018-07-24T01:29:11.858Z,0
2018-07-24T01:30:11.816Z,0
2018-07-24T01:31:11.881Z,0
2018-07-24T01:32:11.813Z,0
2018-07-24T01:33:11.885Z,0
2018-07-24T01:34:11.817Z,0
2018-07-24T01:35:11.819Z,0
2018-07-24T01:36:11.886Z,0
2018-07-24T01:37:11.886Z,0
2018-07-24T01:38:11.820Z,0
2018-07-24T01:39:11.885Z,0
2018-07-24T01:40:11.894Z,0
2018-07-24T01:41:11.922Z,0
2018-07-24T01:42:11.831Z,0
2018-07-24T01:43:11.858Z,0
2018-07-24T01:44:11.810Z,0
2018-07-24T01:45:11.925Z,0
2018-07-24T01:46:11.921Z,0
2018-07-24T01:47:11.794Z,0
2018-07-24T01:48:11.861Z,0
2018-07-24T01:49:11.801Z,0
2018-07-24T01:50:11.935Z,0
2018-07-24T01:51:11.871Z,0
2018-07-24T01:52:11.829Z,0
2018-07-24T01:53:11.901Z,0
2018-07-24T01:54:11.878Z,0
2018-07-24T01:55:11.878Z,0
2018-07-24T01:56:11.896Z,0
2018-07-24T01:57:11.930Z,0
2018-07-24T01:58:11.804Z,0
2018-07-24T01:59:11.934Z,0
2018-07-24T02:00:11.883Z,0
2018-07-24T02:01:11.840Z,0
2018-07-24T02:02:11.918Z,0
2018-07-24T02:03:11.903Z,0
2018-07-24T02:04:11.928Z,0
2018-07-24T02:05:11.871Z,0
2018-07-24T02:06:11.884Z,0
2018-07-24T02:07:11.905Z,0
2018-07-24T02:08:11.873Z,0
2018-07-24T02:09:11.874Z,0
2018-07-24T02:10:11.937Z,0
2018-07-24T02:11:11.911Z,0
2018-07-24T02:12:11.913Z,0
2018-07-24T02:13:11.915Z,0
2018-07-24T02:14:11.847Z,0
2018-07-24T02:15:11.846Z,0
2018-07-24T02:16:11.912Z,0
2018-07-24T02:17:11.911Z,0
2018-07-24T02:18:11.914Z,0
2018-07-24T02:19:11.855Z,0
2018-07-24T02:20:11.852Z,0
2018-07-24T02:21:11.876Z,0
2018-07-24T02:22:11.922Z,0
2018-07-24T02:23:11.837Z,0
2018-07-24T02:24:11.934Z,0
2018-07-24T02:25:11.917Z,0
2018-07-24T02:26:11.842Z,0
2018-07-24T02:27:11.886Z,0
2018-07-24T02:28:11.948Z,0
2018-07-24T02:29:11.923Z,0
2018-07-24T02:30:11.825Z,0
2018-07-24T02:31:11.954Z,0
2018-07-24T02:32:11.938Z,0
2018-07-24T02:33:11.963Z,0
2018-07-24T02:34:11.925Z,0
2018-07-24T02:35:11.896Z,0
2018-07-24T02:36:11.928Z,0
2018-07-24T02:37:11.893Z,0
2018-07-24T02:38:11.868Z,0
2018-07-24T02:39:11.903Z,0
2018-07-24T02:40:11.956Z,0
2018-07-24T02:41:11.912Z,0
2018-07-24T02:42:11.850Z,0
2018-07-24T02:43:11.833Z,0
2018-07-24T02:44:11.901Z,0
2018-07-24T02:45:11.962Z,0
2018-07-24T02:46:11.840Z,0
2018-07-24T02:47:11.938Z,0
2018-07-24T02:48:11.940Z,0
2018-07-24T02:49:11.967Z,0
2018-07-24T02:50:11.970Z,0
2018-07-24T02:51:11.854Z,0
2018-07-24T02:52:11.820Z,0
2018-07-24T02:53:11.813Z,0
2018-07-24T02:54:11.937Z,0
2018-07-24T02:55:11.858Z,0
2018-07-24T02:56:11.937Z,0
2018-07-24T02:57:11.871Z,0
2018-07-24T02:58:11.934Z,0
2018-07-24T02:59:11.940Z,0
2018-07-24T03:00:11.935Z,0
2018-07-24T03:01:11.947Z,0
2018-07-24T03:02:11.876Z,0
2018-07-24T03:03:11.950Z,0
2018-07-24T03:04:11.947Z,0
2018-07-24T03:05:11.914Z,0
2018-07-24T03:06:11.884Z,0
2018-07-24T03:07:11.962Z,0
2018-07-24T03:08:11.882Z,0
2018-07-24T03:09:11.903Z,0
2018-07-24T03:10:11.881Z,0
2018-07-24T03:11:11.947Z,0
2018-07-24T03:12:11.872Z,0
2018-07-24T03:13:11.944Z,0
2018-07-24T03:14:11.855Z,5
2018-07-24T03:15:11.827Z,5
2018-07-24T03:16:11.991Z,5
2018-07-24T03:17:11.983Z,5
2018-07-24T03:18:11.839Z,5
2018-07-24T03:19:11.861Z,5
2018-07-24T03:20:11.861Z,5
2018-07-24T03:21:11.879Z,11
2018-07-24T03:22:11.986Z,11
2018-07-24T03:23:11.895Z,11
2018-07-24T03:24:11.964Z,11
2018-07-24T03:25:11.898Z,16
2018-07-24T03:26:11.991Z,16
2018-07-24T03:27:11.964Z,16
2018-07-24T03:28:11.979Z,16
2018-07-24T03:29:11.863Z,22
2018-07-24T03:30:11.941Z,22
2018-07-24T03:31:11.956Z,28
2018-07-24T03:32:11.870Z,28
2018-07-24T03:33:11.957Z,28
2018-07-24T03:34:11.873Z,33
2018-07-24T03:35:11.889Z,33
2018-07-24T03:36:11.908Z,39
2018-07-24T03:37:11.846Z,39
2018-07-24T03:38:11.916Z,45
2018-07-24T03:39:11.964Z,45
2018-07-24T03:40:11.964Z,50
2018-07-24T03:41:11.895Z,50
2018-07-24T03:42:11.892Z,56
2018-07-24T03:43:11.965Z,61
2018-07-24T03:44:11.966Z,61
2018-07-24T03:45:12.010Z,67
2018-07-24T03:46:11.970Z,73
2018-07-24T03:47:11.877Z,73
2018-07-24T03:48:11.970Z,78
2018-07-24T03:49:11.970Z,84
2018-07-24T03:50:11.852Z,90
2018-07-24T03:51:11.914Z,90
2018-07-24T03:52:11.977Z,95
2018-07-24T03:53:11.975Z,101
2018-07-24T03:54:11.917Z,106
2018-07-24T03:55:11.983Z,106
2018-07-24T03:56:11.978Z,112
2018-07-24T03:57:12.000Z,118
2018-07-24T03:58:11.913Z,123
2018-07-24T03:59:11.980Z,129
2018-07-24T04:00:12.007Z,129
2018-07-24T04:01:11.956Z,135
2018-07-24T04:02:11.914Z,140
2018-07-24T04:03:11.887Z,146
2018-07-24T04:04:11.985Z,151
2018-07-24T04:05:11.952Z,151
2018-07-24T04:06:12.011Z,157
2018-07-24T04:07:11.890Z,163
2018-07-24T04:08:11.935Z,168
2018-07-24T04:09:11.926Z,174
2018-07-24T04:10:11.895Z,180
2018-07-24T04:11:11.915Z,185
2018-07-24T04:12:11.988Z,191
2018-07-24T04:13:11.970Z,196
2018-07-24T04:14:11.956Z,196
2018-07-24T04:15:12.009Z,202
2018-07-24T04:16:11.959Z,208
2018-07-24T04:17:11.951Z,213
2018-07-24T04:18:11.997Z,219
2018-07-24T04:19:11.969Z,225
2018-07-24T04:20:11.961Z,230
2018-07-24T04:21:11.936Z,236
2018-07-24T04:22:11.936Z,236
2018-07-24T04:23:11.999Z,241
2018-07-24T04:24:12.001Z,247
2018-07-24T04:25:11.932Z,253
2018-07-24T04:26:12.001Z,258
2018-07-24T04:27:12.010Z,264
2018-07-24T04:28:12.005Z,270
2018-07-24T04:29:11.934Z,275
2018-07-24T04:30:11.937Z,281
2018-07-24T04:31:12.061Z,281
2018-07-24T04:32:11.910Z,286
2018-07-24T04:33:11.924Z,292
2018-07-24T04:34:12.036Z,298
2018-07-24T04:35:12.006Z,303
2018-07-24T04:36:12.046Z,315
2018-07-24T04:37:11.908Z,315
2018-07-24T04:38:12.031Z,320
2018-07-24T04:39:11.985Z,326
2018-07-24T04:40:12.074Z,331
2018-07-24T04:41:12.013Z,331
2018-07-24T04:42:11.942Z,337
2018-07-24T04:43:11.947Z,337
2018-07-24T04:44:11.946Z,343
2018-07-24T04:45:12.044Z,354
2018-07-24T04:46:11.956Z,360
2018-07-24T04:47:11.904Z,365
2018-07-24T04:48:11.947Z,365
2018-07-24T04:49:11.957Z,371
2018-07-24T04:50:12.022Z,376
2018-07-24T04:51:11.992Z,382
2018-07-24T04:52:11.923Z,388
2018-07-24T04:53:12.035Z,393
2018-07-24T04:54:11.984Z,393
2018-07-24T04:55:11.924Z,399
2018-07-24T04:56:12.020Z,405
2018-07-24T04:57:11.943Z,410
2018-07-24T04:58:11.931Z,410
2018-07-24T04:59:12.022Z,416
2018-07-24T05:00:12.026Z,421
2018-07-24T05:01:12.025Z,421
2018-07-24T05:02:11.999Z,427
2018-07-24T05:03:12.046Z,433
2018-07-24T05:04:12.051Z,438
2018-07-24T05:05:12.029Z,444
2018-07-24T05:06:12.057Z,450
2018-07-24T05:07:12.062Z,455
2018-07-24T05:08:11.989Z,455
2018-07-24T05:09:12.056Z,461
2018-07-24T05:10:12.070Z,466
2018-07-24T05:11:11.936Z,472
2018-07-24T05:12:12.011Z,478
2018-07-24T05:13:12.001Z,478
2018-07-24T05:14:12.014Z,483
2018-07-24T05:15:12.013Z,483
2018-07-24T05:16:11.999Z,489
2018-07-24T05:17:12.072Z,495
2018-07-24T05:18:12.073Z,500
2018-07-24T05:19:12.058Z,500
2018-07-24T05:20:12.078Z,506
2018-07-24T05:21:12.057Z,511
2018-07-24T05:22:11.945Z,517
2018-07-24T05:23:12.081Z,517
2018-07-24T05:24:11.945Z,517
2018-07-24T05:25:12.020Z,523
2018-07-24T05:26:12.068Z,528
2018-07-24T05:27:12.077Z,528
2018-07-24T05:28:12.003Z,534
2018-07-24T05:29:12.024Z,540
2018-07-24T05:30:12.064Z,545
2018-07-24T05:31:12.025Z,551
2018-07-24T05:32:12.006Z,551
2018-07-24T05:33:12.039Z,556
2018-07-24T05:34:11.946Z,568
2018-07-24T05:35:12.072Z,568
2018-07-24T05:36:12.070Z,568
2018-07-24T05:37:11.950Z,579
2018-07-24T05:38:12.016Z,579
2018-07-24T05:39:12.036Z,579
2018-07-24T05:40:12.010Z,585
2018-07-24T05:41:11.982Z,590
2018-07-24T05:42:12.007Z,596
2018-07-24T05:43:11.964Z,596
2018-07-24T05:44:11.963Z,601
2018-07-24T05:45:11.949Z,607
2018-07-24T05:46:12.034Z,613
2018-07-24T05:47:12.056Z,618
2018-07-24T05:48:12.046Z,618
2018-07-24T05:49:11.958Z,624
2018-07-24T05:50:12.013Z,646
2018-07-24T05:51:11.979Z,838
2018-07-24T05:52:12.096Z,1035
2018-07-24T05:53:12.040Z,1063
2018-07-24T05:54:12.096Z,1085
2018-07-24T05:55:12.032Z,1125
2018-07-24T05:56:12.083Z,1186
2018-07-24T05:57:12.088Z,1231
2018-07-24T05:58:12.044Z,1265
2018-07-24T05:59:12.183Z,1293
2018-07-24T06:00:12.064Z,1333
2018-07-24T06:01:12.000Z,1389
2018-07-24T06:02:12.001Z,1434
2018-07-24T06:03:12.071Z,1479
2018-07-24T06:04:12.068Z,1580
2018-07-24T06:05:12.009Z,1698
2018-07-24T06:06:12.003Z,1968
2018-07-24T06:07:12.058Z,2587
2018-07-24T06:08:12.004Z,1665
2018-07-24T06:09:12.070Z,1535
2018-07-24T06:10:11.967Z,1535
2018-07-24T06:11:12.010Z,1552
2018-07-24T06:12:12.087Z,1575
2018-07-24T06:13:12.026Z,1704
2018-07-24T06:14:12.072Z,1687
2018-07-24T06:15:12.075Z,1715
2018-07-24T06:16:11.986Z,1738
2018-07-24T06:17:12.072Z,1760
2018-07-24T06:18:11.958Z,1783
2018-07-24T06:19:11.987Z,1816
2018-07-24T06:20:11.987Z,1845
2018-07-24T06:21:12.069Z,1878
2018-07-24T06:22:12.066Z,1867
2018-07-24T06:23:12.006Z,1850
2018-07-24T06:24:12.025Z,1822
2018-07-24T06:25:12.078Z,1816
2018-07-24T06:26:12.040Z,1805
2018-07-24T06:27:12.003Z,1805
2018-07-24T06:28:12.051Z,1788
2018-07-24T06:29:12.059Z,1788
2018-07-24T06:30:12.087Z,1811
2018-07-24T06:31:12.083Z,1861
2018-07-24T06:32:11.992Z,1901
2018-07-24T06:33:12.124Z,1963
2018-07-24T06:34:12.127Z,2002
2018-07-24T06:35:12.076Z,2036
2018-07-24T06:36:12.069Z,2075
2018-07-24T06:37:12.152Z,2103
2018-07-24T06:38:12.093Z,2154
2018-07-24T06:39:12.091Z,2193
2018-07-24T06:40:12.015Z,2266
2018-07-24T06:41:11.989Z,2311
2018-07-24T06:42:12.014Z,2362
2018-07-24T06:43:12.008Z,2401
2018-07-24T06:44:12.147Z,2407
2018-07-24T06:45:12.089Z,2368
2018-07-24T06:46:12.008Z,2311
2018-07-24T06:47:11.966Z,2250
2018-07-24T06:48:11.965Z,2165
2018-07-24T06:49:12.038Z,2086
2018-07-24T06:50:12.008Z,2025
2018-07-24T06:51:12.069Z,1991
2018-07-24T06:52:12.096Z,2025
2018-07-24T06:53:12.089Z,2115
2018-07-24T06:54:12.097Z,2244
2018-07-24T06:55:12.103Z,2379
2018-07-24T06:56:12.007Z,2503
2018-07-24T06:57:12.051Z,2626
2018-07-24T06:58:12.090Z,2716
2018-07-24T06:59:12.089Z,2784
2018-07-24T07:00:12.046Z,2823
2018-07-24T07:01:12.041Z,2851
2018-07-24T07:02:12.208Z,2863
2018-07-24T07:03:12.054Z,2880
2018-07-24T07:04:12.111Z,2908
2018-07-24T07:05:12.161Z,2941
2018-07-24T07:06:12.111Z,2970
2018-07-24T07:07:12.045Z,2992
2018-07-24T07:08:12.062Z,2998
2018-07-24T07:09:11.996Z,3009
2018-07-24T07:10:12.068Z,3026
2018-07-24T07:11:12.143Z,3054
2018-07-24T07:12:12.071Z,3071
2018-07-24T07:13:12.207Z,3082
2018-07-24T07:14:12.121Z,3071
2018-07-24T07:15:12.113Z,3065
2018-07-24T07:16:12.056Z,3060
2018-07-24T07:17:12.088Z,3048
2018-07-24T07:18:12.156Z,3026
2018-07-24T07:19:12.137Z,3031
2018-07-24T07:20:12.080Z,3060
2018-07-24T07:21:12.056Z,3093
2018-07-24T07:22:12.048Z,3138
2018-07-24T07:23:12.122Z,3166
2018-07-24T07:24:12.102Z,3206
2018-07-24T07:25:12.120Z,3245
2018-07-24T07:26:12.492Z,3251
2018-07-24T07:27:12.105Z,3268
2018-07-24T07:28:12.152Z,3279
2018-07-24T07:29:12.164Z,3324
2018-07-24T07:30:12.106Z,3386
2018-07-24T07:31:12.128Z,3414
2018-07-24T07:32:12.206Z,3414
2018-07-24T07:33:12.167Z,3403
2018-07-24T07:34:12.131Z,3431
2018-07-24T07:35:12.063Z,3481
2018-07-24T07:36:12.130Z,3510
2018-07-24T07:37:12.068Z,3515
2018-07-24T07:38:12.063Z,3504
2018-07-24T07:39:12.177Z,3521
2018-07-24T07:40:12.072Z,3588
2018-07-24T07:41:12.136Z,3588
2018-07-24T07:42:12.068Z,3611
2018-07-24T07:43:12.068Z,3628
2018-07-24T07:44:12.136Z,3633
2018-07-24T07:45:12.160Z,3650
2018-07-24T07:46:12.136Z,3645
2018-07-24T07:47:12.076Z,3633
2018-07-24T07:48:12.134Z,3656
2018-07-24T07:49:12.069Z,3701
2018-07-24T07:50:12.075Z,3746
2018-07-24T07:51:12.163Z,3735
2018-07-24T07:52:12.107Z,3735
2018-07-24T07:53:12.166Z,3757
2018-07-24T07:54:12.051Z,3796
2018-07-24T07:55:12.163Z,3819
2018-07-24T07:56:12.102Z,3813
2018-07-24T07:57:12.050Z,3796
2018-07-24T07:58:12.148Z,3785
2018-07-24T07:59:12.109Z,3830
2018-07-24T08:00:12.165Z,3870
2018-07-24T08:01:12.101Z,3881
2018-07-24T08:02:12.069Z,3864
2018-07-24T08:03:12.119Z,3864
2018-07-24T08:04:12.101Z,3875
2018-07-24T08:05:12.167Z,3931
2018-07-24T08:06:12.127Z,3982
2018-07-24T08:07:12.111Z,4033
2018-07-24T08:08:12.180Z,4061
2018-07-24T08:09:12.131Z,4100
2018-07-24T08:10:12.181Z,4128
2018-07-24T08:11:12.182Z,4145
2018-07-24T08:12:12.088Z,4145
2018-07-24T08:13:12.156Z,4117
2018-07-24T08:14:12.140Z,4111
2018-07-24T08:15:12.158Z,4106
2018-07-24T08:16:12.091Z,4117
2018-07-24T08:17:12.196Z,4140
2018-07-24T08:18:12.158Z,4168
2018-07-24T08:19:12.177Z,4156
2018-07-24T08:20:12.097Z,4145
2018-07-24T08:21:12.096Z,4185
2018-07-24T08:22:12.172Z,4213
2018-07-24T08:23:12.163Z,4275
2018-07-24T08:24:12.181Z,4275
2018-07-24T08:25:12.186Z,4241
2018-07-24T08:26:12.197Z,4196
2018-07-24T08:27:12.195Z,4185
2018-07-24T08:28:12.153Z,4201
2018-07-24T08:29:12.148Z,4207
2018-07-24T08:30:12.202Z,4185
2018-07-24T08:31:12.212Z,4218
2018-07-24T08:32:12.167Z,4291
2018-07-24T08:33:12.152Z,4342
2018-07-24T08:34:12.143Z,4381
2018-07-24T08:35:12.200Z,4376
2018-07-24T08:36:12.203Z,4348
2018-07-24T08:37:12.093Z,4336
2018-07-24T08:38:12.207Z,4308
2018-07-24T08:39:12.110Z,4308
2018-07-24T08:40:12.199Z,4353
2018-07-24T08:41:12.196Z,4404
2018-07-24T08:42:12.197Z,4432
2018-07-24T08:43:12.214Z,4466
2018-07-24T08:44:12.082Z,4488
2018-07-24T08:45:12.186Z,4550
2018-07-24T08:46:12.198Z,4601
2018-07-24T08:47:12.217Z,4623
2018-07-24T08:48:12.202Z,4595
2018-07-24T08:49:12.190Z,4590
2018-07-24T08:50:12.198Z,4595
2018-07-24T08:51:12.211Z,4663
2018-07-24T08:52:12.120Z,4657
2018-07-24T08:53:12.302Z,4668
2018-07-24T08:54:12.385Z,4657
2018-07-24T08:55:12.336Z,4674
2018-07-24T08:56:12.120Z,4713
2018-07-24T08:57:12.123Z,4753
2018-07-24T08:58:12.185Z,4775
2018-07-24T08:59:12.120Z,4775
2018-07-24T09:00:12.185Z,4770
2018-07-24T09:01:12.187Z,4770
2018-07-24T09:02:12.205Z,4753
2018-07-24T09:03:12.236Z,4753
2018-07-24T09:04:12.247Z,4786
2018-07-24T09:05:12.154Z,4786
2018-07-24T09:06:12.212Z,4809
2018-07-24T09:07:12.196Z,4831
2018-07-24T09:08:12.183Z,4826
2018-07-24T09:09:12.197Z,4815
2018-07-24T09:10:12.290Z,4809
2018-07-24T09:11:12.213Z,4809
2018-07-24T09:12:12.131Z,4747
2018-07-24T09:13:12.165Z,4702
2018-07-24T09:14:12.197Z,4657
2018-07-24T09:15:12.134Z,4663
2018-07-24T09:16:12.131Z,4668
2018-07-24T09:17:12.237Z,4719
2018-07-24T09:18:12.197Z,4781
2018-07-24T09:19:12.200Z,4876
2018-07-24T09:20:12.198Z,4921
2018-07-24T09:21:12.202Z,5006
2018-07-24T09:22:12.201Z,5034
2018-07-24T09:23:12.137Z,5040
2018-07-24T09:24:12.136Z,5040
2018-07-24T09:25:12.234Z,4989
2018-07-24T09:26:12.136Z,4950
2018-07-24T09:27:12.208Z,4983
2018-07-24T09:28:12.141Z,5006
2018-07-24T09:29:12.141Z,5051
2018-07-24T09:30:12.138Z,5051
2018-07-24T09:31:12.207Z,5006
2018-07-24T09:32:12.205Z,4983
2018-07-24T09:33:12.209Z,4955
2018-07-24T09:34:12.140Z,4938
2018-07-24T09:35:12.214Z,4927
2018-07-24T09:36:12.147Z,4927
2018-07-24T09:37:12.213Z,4955
2018-07-24T09:38:12.212Z,5017
2018-07-24T09:39:12.148Z,5090
2018-07-24T09:40:12.157Z,5169
2018-07-24T09:41:12.148Z,5231
2018-07-24T09:42:12.124Z,5259
2018-07-24T09:43:12.258Z,5265
2018-07-24T09:44:12.124Z,5293
2018-07-24T09:45:12.121Z,5253
2018-07-24T09:46:12.158Z,5231
2018-07-24T09:47:12.257Z,5220
2018-07-24T09:48:12.174Z,5208
2018-07-24T09:49:12.261Z,5191
2018-07-24T09:50:12.251Z,5152
2018-07-24T09:51:12.193Z,5141
2018-07-24T09:52:12.244Z,5130
2018-07-24T09:53:12.181Z,5146
2018-07-24T09:54:12.175Z,5225
2018-07-24T09:55:12.254Z,5315
2018-07-24T09:56:12.253Z,5366
2018-07-24T09:57:12.255Z,5371
2018-07-24T09:58:12.204Z,5383
2018-07-24T09:59:12.291Z,5394
2018-07-24T10:00:12.242Z,5416
2018-07-24T10:01:12.228Z,5422
2018-07-24T10:02:12.133Z,5433
2018-07-24T10:03:12.180Z,5461
2018-07-24T10:04:12.158Z,5473
2018-07-24T10:05:12.166Z,5490
2018-07-24T10:06:12.225Z,5501
2018-07-24T10:07:12.217Z,5461
2018-07-24T10:08:12.164Z,5394
2018-07-24T10:09:12.184Z,5343
2018-07-24T10:10:12.165Z,5349
2018-07-24T10:11:12.224Z,5360
2018-07-24T10:12:12.249Z,5411
2018-07-24T10:13:12.327Z,5416
2018-07-24T10:14:12.107Z,5360
2018-07-24T10:15:12.138Z,5343
2018-07-24T10:16:12.169Z,5326
2018-07-24T10:17:12.221Z,5304
2018-07-24T10:18:12.151Z,5304
2018-07-24T10:19:12.228Z,5315
2018-07-24T10:20:12.113Z,5332
2018-07-24T10:21:12.215Z,5371
2018-07-24T10:22:12.184Z,5428
2018-07-24T10:23:12.198Z,5439
2018-07-24T10:24:12.131Z,5478
2018-07-24T10:25:12.234Z,5473
2018-07-24T10:26:12.233Z,5416
2018-07-24T10:27:12.242Z,5349
2018-07-24T10:28:12.169Z,5321
2018-07-24T10:29:12.183Z,5326
2018-07-24T10:30:12.252Z,5304
2018-07-24T10:31:12.248Z,5287
2018-07-24T10:32:12.208Z,5343
2018-07-24T10:33:12.151Z,5433
2018-07-24T10:34:12.219Z,5467
2018-07-24T10:35:12.210Z,5445
2018-07-24T10:36:12.214Z,5400
2018-07-24T10:37:12.267Z,5338
2018-07-24T10:38:12.207Z,5270
2018-07-24T10:39:12.274Z,5208
2018-07-24T10:40:12.165Z,5175
2018-07-24T10:41:12.222Z,5208
2018-07-24T10:42:12.160Z,5281
2018-07-24T10:43:12.366Z,5265
2018-07-24T10:44:12.329Z,5276
2018-07-24T10:45:12.216Z,5270
2018-07-24T10:46:12.296Z,5343
2018-07-24T10:47:12.261Z,5461
2018-07-24T10:48:12.262Z,5518
2018-07-24T10:49:12.293Z,5585
2018-07-24T10:50:12.258Z,5585
2018-07-24T10:51:12.263Z,5529
2018-07-24T10:52:12.285Z,5467
2018-07-24T10:53:12.237Z,5349
2018-07-24T10:54:12.302Z,5281
2018-07-24T10:55:12.304Z,5270
2018-07-24T10:56:12.300Z,5214
2018-07-24T10:57:12.227Z,5175
2018-07-24T10:58:12.299Z,5135
2018-07-24T10:59:12.185Z,5191
2018-07-24T11:00:12.289Z,5304
2018-07-24T11:01:12.225Z,5326
2018-07-24T11:02:12.211Z,5287
2018-07-24T11:03:12.273Z,5281
2018-07-24T11:04:12.140Z,5355
2018-07-24T11:05:12.214Z,5450
2018-07-24T11:06:12.267Z,5523
2018-07-24T11:07:12.175Z,5551
2018-07-24T11:08:12.205Z,5518
2018-07-24T11:09:12.161Z,5512
2018-07-24T11:10:12.225Z,5490
2018-07-24T11:11:12.272Z,5473
2018-07-24T11:12:12.214Z,5355
2018-07-24T11:13:12.277Z,5231
2018-07-24T11:14:12.241Z,5214
2018-07-24T11:15:12.277Z,5276
2018-07-24T11:16:12.214Z,5343
2018-07-24T11:17:12.217Z,5400
2018-07-24T11:18:12.284Z,5366
2018-07-24T11:19:12.213Z,5343
2018-07-24T11:20:12.285Z,5355
2018-07-24T11:21:12.216Z,5366
2018-07-24T11:22:12.349Z,5422
2018-07-24T11:23:12.371Z,5377
2018-07-24T11:24:12.316Z,5349
2018-07-24T11:25:12.319Z,5445
2018-07-24T11:26:12.266Z,5641
2018-07-24T11:27:12.318Z,5765
2018-07-24T11:28:12.230Z,5844
2018-07-24T11:29:12.244Z,5866
2018-07-24T11:30:12.255Z,5866
2018-07-24T11:31:12.319Z,5855
2018-07-24T11:32:12.237Z,5799
2018-07-24T11:33:12.216Z,5776
2018-07-24T11:34:12.258Z,5681
2018-07-24T11:35:12.225Z,5523
2018-07-24T11:36:12.396Z,5428
2018-07-24T11:37:12.225Z,5355
2018-07-24T11:38:12.277Z,5315
2018-07-24T11:39:12.277Z,5276
2018-07-24T11:40:12.273Z,5135
2018-07-24T11:41:12.285Z,5006
2018-07-24T11:42:12.252Z,4927
2018-07-24T11:43:12.296Z,5006
2018-07-24T11:44:12.300Z,5107
2018-07-24T11:45:12.328Z,5231
2018-07-24T11:46:12.232Z,5236
2018-07-24T11:47:12.304Z,5220
2018-07-24T11:48:12.235Z,5265
2018-07-24T11:49:12.304Z,5360
2018-07-24T11:50:12.235Z,5416
2018-07-24T11:51:12.240Z,5422
2018-07-24T11:52:12.295Z,5377
2018-07-24T11:53:12.334Z,5377
2018-07-24T11:54:12.282Z,5473
2018-07-24T11:55:12.211Z,5546
2018-07-24T11:56:12.270Z,5608
2018-07-24T11:57:12.337Z,5641
2018-07-24T11:58:12.342Z,5602
2018-07-24T11:59:12.333Z,5518
2018-07-24T12:00:12.335Z,5546
2018-07-24T12:01:12.217Z,5658
2018-07-24T12:02:12.245Z,5720
2018-07-24T12:03:12.248Z,5698
2018-07-24T12:04:12.242Z,5596
2018-07-24T12:05:12.316Z,5501
2018-07-24T12:06:12.311Z,5467
2018-07-24T12:07:12.312Z,5405
2018-07-24T12:08:12.253Z,5315
2018-07-24T12:09:12.248Z,5225
2018-07-24T12:10:12.251Z,5220
2018-07-24T12:11:12.243Z,5203
2018-07-24T12:12:12.303Z,5141
2018-07-24T12:13:12.343Z,5079
2018-07-24T12:14:12.282Z,5073
2018-07-24T12:15:12.279Z,5079
2018-07-24T12:16:12.362Z,5056
2018-07-24T12:17:12.340Z,4978
2018-07-24T12:18:12.285Z,4927
2018-07-24T12:19:12.285Z,4944
2018-07-24T12:20:12.278Z,4989
2018-07-24T12:21:12.376Z,5023
2018-07-24T12:22:12.290Z,5062
2018-07-24T12:23:12.341Z,5056
2018-07-24T12:24:12.269Z,5062
2018-07-24T12:25:12.307Z,5090
2018-07-24T12:26:12.343Z,5096
2018-07-24T12:27:12.398Z,5028
2018-07-24T12:28:12.328Z,4972
2018-07-24T12:29:12.293Z,4950
2018-07-24T12:30:12.236Z,5000
2018-07-24T12:31:12.310Z,5056
2018-07-24T12:32:12.308Z,5079
2018-07-24T12:33:12.241Z,5040
2018-07-24T12:34:12.306Z,5040
2018-07-24T12:35:12.370Z,4961
2018-07-24T12:36:12.470Z,4837
2018-07-24T12:37:12.414Z,4725
2018-07-24T12:38:12.302Z,4635
2018-07-24T12:39:12.309Z,4606
2018-07-24T12:40:12.352Z,4696
2018-07-24T12:41:12.342Z,4775
2018-07-24T12:42:12.259Z,4826
2018-07-24T12:43:12.243Z,4860
2018-07-24T12:44:12.241Z,4910
2018-07-24T12:45:12.361Z,4966
2018-07-24T12:46:12.154Z,4972
2018-07-24T12:47:12.315Z,4955
2018-07-24T12:48:12.355Z,4916
2018-07-24T12:49:12.279Z,4916
2018-07-24T12:50:12.283Z,4905
2018-07-24T12:51:12.283Z,4899
2018-07-24T12:52:12.308Z,4910
2018-07-24T12:53:12.346Z,4950
2018-07-24T12:54:12.310Z,4972
2018-07-24T12:55:12.381Z,5011
2018-07-24T12:56:12.368Z,4983
2018-07-24T12:57:12.332Z,4978
2018-07-24T12:58:12.377Z,4966
2018-07-24T12:59:12.310Z,4966
2018-07-24T13:00:12.255Z,4944
2018-07-24T13:01:12.314Z,4910
2018-07-24T13:02:12.396Z,4843
2018-07-24T13:03:12.276Z,4837
2018-07-24T13:04:12.373Z,4843
2018-07-24T13:05:12.324Z,4871
2018-07-24T13:06:12.321Z,4899
2018-07-24T13:07:12.335Z,4910
2018-07-24T13:08:12.297Z,4888
2018-07-24T13:09:12.322Z,4916
2018-07-24T13:10:12.477Z,4921
2018-07-24T13:11:12.332Z,4905
2018-07-24T13:12:12.358Z,4831
2018-07-24T13:13:12.360Z,4708
2018-07-24T13:14:12.363Z,4584
2018-07-24T13:15:12.298Z,4438
2018-07-24T13:16:12.291Z,4325
2018-07-24T13:17:12.299Z,4235
2018-07-24T13:18:12.299Z,4185
2018-07-24T13:19:12.364Z,4123
2018-07-24T13:20:12.305Z,4066
2018-07-24T13:21:12.413Z,4027
2018-07-24T13:22:12.368Z,4033
2018-07-24T13:23:12.300Z,4061
2018-07-24T13:24:12.368Z,4095
2018-07-24T13:25:12.300Z,4128
2018-07-24T13:26:12.329Z,4162
2018-07-24T13:27:12.368Z,4190
2018-07-24T13:28:12.368Z,4263
2018-07-24T13:29:12.305Z,4314
2018-07-24T13:30:12.371Z,4320
2018-07-24T13:31:12.309Z,4314
2018-07-24T13:32:12.414Z,4297
2018-07-24T13:33:12.348Z,4297
2018-07-24T13:34:12.308Z,4291
2018-07-24T13:35:12.266Z,4258
2018-07-24T13:36:12.379Z,4230
2018-07-24T13:37:12.360Z,4218
2018-07-24T13:38:12.266Z,4230
2018-07-24T13:39:12.266Z,4196
2018-07-24T13:40:12.305Z,4156
2018-07-24T13:41:12.278Z,4100
2018-07-24T13:42:12.399Z,4072
2018-07-24T13:43:12.321Z,4055
2018-07-24T13:44:12.336Z,4061